Time;durP1;ratioP1;P1;durP2;ratioP2;P2;SDS_P1;SDS_P2;PMS_P1;PMS_P2;Temp;Humidity;BMP_temperature;BMP_pressure;BME280_temperature;BME280_humidity;BME280_pressure;Samples;Min_cycle;Max_cycle;Signal;HPM_P1;HPM_P2
2022/01/09 00:00:16;;;;;;;14.10;7.00;;;8.30;93.90;;;;;;5005157;28;20575;-79
2022/01/09 00:02:45;;;;;;;18.37;6.77;;;8.30;93.80;;;;;;5001833;28;20255;-77
2022/01/09 00:05:14;;;;;;;17.93;6.97;;;8.30;93.80;;;;;;5002363;28;20192;-77
2022/01/09 00:07:43;;;;;;;17.83;6.80;;;8.30;93.80;;;;;;4999727;28;20200;-77
2022/01/09 00:10:12;;;;;;;18.13;6.47;;;8.30;93.80;;;;;;5004194;28;20231;-77
2022/01/09 00:12:41;;;;;;;14.70;6.47;;;8.30;93.70;;;;;;5000998;28;20298;-77
2022/01/09 00:15:11;;;;;;;15.37;6.43;;;8.30;93.70;;;;;;4998383;28;20195;-77
2022/01/09 00:17:40;;;;;;;15.83;6.77;;;8.30;93.80;;;;;;5003399;28;20343;-77
2022/01/09 00:20:11;;;;;;;21.30;6.43;;;8.30;93.80;;;;;;5005745;28;20199;-77
2022/01/09 00:22:44;;;;;;;19.80;6.20;;;8.30;93.80;;;;;;5003021;28;20195;-77
2022/01/09 00:25:14;;;;;;;15.47;6.77;;;8.30;93.80;;;;;;4997923;28;20185;-76
2022/01/09 00:27:44;;;;;;;15.20;6.70;;;8.30;93.80;;;;;;5004683;28;20199;-77
2022/01/09 00:30:14;;;;;;;14.77;7.17;;;8.30;93.80;;;;;;5004491;28;20253;-77
2022/01/09 00:32:43;;;;;;;21.00;6.70;;;8.30;94.30;;;;;;5003729;28;20203;-77
2022/01/09 00:35:12;;;;;;;18.97;6.97;;;8.30;93.90;;;;;;5003594;28;20195;-77
2022/01/09 00:37:41;;;;;;;20.60;7.00;;;8.30;93.90;;;;;;5002382;28;20251;-77
2022/01/09 00:40:11;;;;;;;12.53;6.07;;;8.30;93.90;;;;;;5004321;28;20207;-77
2022/01/09 00:42:41;;;;;;;17.53;6.43;;;8.30;93.90;;;;;;4998181;28;20227;-77
2022/01/09 00:45:12;;;;;;;18.17;7.20;;;8.30;93.80;;;;;;5000770;28;20287;-77
2022/01/09 00:47:41;;;;;;;14.87;6.50;;;8.30;93.80;;;;;;5001277;28;20189;-76
2022/01/09 00:50:11;;;;;;;16.40;7.17;;;8.40;93.80;;;;;;5002766;28;20258;-77
2022/01/09 00:52:40;;;;;;;14.13;7.33;;;8.40;94.20;;;;;;4999394;28;20681;-77
2022/01/09 00:55:09;;;;;;;22.17;8.03;;;8.40;93.70;;;;;;5004430;28;20204;-77
2022/01/09 00:57:38;;;;;;;18.53;6.93;;;8.40;93.70;;;;;;5001659;28;20201;-78
2022/01/09 01:00:08;;;;;;;17.73;6.37;;;8.40;93.70;;;;;;5001702;28;20262;-77
2022/01/09 01:02:38;;;;;;;17.40;7.00;;;8.40;93.70;;;;;;4993929;28;20293;-77
2022/01/09 01:05:08;;;;;;;17.33;8.17;;;8.50;93.70;;;;;;5000487;28;20193;-77
2022/01/09 01:07:36;;;;;;;14.70;6.10;;;8.50;93.70;;;;;;5001098;28;20207;-77
2022/01/09 01:10:11;;;;;;;24.03;7.40;;;8.50;93.70;;;;;;5000600;28;20275;-77
2022/01/09 01:12:39;;;;;;;14.50;6.40;;;8.50;93.70;;;;;;5001961;28;20199;-77
2022/01/09 01:15:09;;;;;;;12.47;6.10;;;8.50;93.60;;;;;;5000489;28;20197;-77
2022/01/09 01:17:39;;;;;;;17.67;6.17;;;8.60;93.60;;;;;;5000430;28;20250;-77
2022/01/09 01:20:09;;;;;;;10.90;6.00;;;8.60;93.60;;;;;;5000213;28;20235;-77
2022/01/09 01:22:37;;;;;;;15.00;6.43;;;8.60;93.50;;;;;;5002722;28;20228;-77
2022/01/09 01:25:06;;;;;;;19.77;6.03;;;8.60;93.50;;;;;;4999428;28;20217;-78
2022/01/09 01:27:35;;;;;;;13.95;5.78;;;8.60;93.50;;;;;;4997927;28;20440;-78
2022/01/09 01:30:04;;;;;;;47.40;9.03;;;8.60;93.40;;;;;;5000430;28;20196;-77
2022/01/09 01:32:32;;;;;;;19.30;6.77;;;8.70;93.40;;;;;;5002906;28;20606;-77
2022/01/09 01:35:02;;;;;;;68.50;10.27;;;8.70;93.40;;;;;;5004516;28;20255;-77
2022/01/09 01:37:30;;;;;;;28.23;7.17;;;8.70;93.50;;;;;;5001134;28;20201;-77
2022/01/09 01:39:59;;;;;;;18.47;6.40;;;8.70;93.50;;;;;;5000844;28;20199;-78
2022/01/09 01:42:27;;;;;;;51.30;9.20;;;8.70;93.50;;;;;;5001207;28;20253;-77
2022/01/09 01:44:55;;;;;;;19.80;6.23;;;8.70;93.50;;;;;;4998462;28;20901;-76
2022/01/09 01:47:24;;;;;;;30.10;7.20;;;8.70;93.50;;;;;;5002798;28;20748;-77
2022/01/09 01:49:52;;;;;;;13.90;7.00;;;8.70;93.50;;;;;;5002850;28;20203;-77
2022/01/09 01:52:28;;;;;;;16.57;7.37;;;8.60;93.50;;;;;;5002460;28;20211;-77
2022/01/09 01:54:57;;;;;;;21.83;6.73;;;8.60;93.40;;;;;;5004005;28;20191;-77
2022/01/09 01:57:26;;;;;;;15.63;6.23;;;8.70;93.40;;;;;;5003493;28;20197;-77
2022/01/09 01:59:56;;;;;;;16.33;6.87;;;8.70;93.50;;;;;;4997859;28;20246;-77
2022/01/09 02:02:25;;;;;;;12.83;5.43;;;8.70;93.50;;;;;;5001219;28;20963;-77
2022/01/09 02:04:54;;;;;;;41.47;8.40;;;8.70;93.50;;;;;;5000722;28;20199;-77
2022/01/09 02:07:24;;;;;;;25.53;7.17;;;8.70;93.50;;;;;;4997264;28;20286;-77
2022/01/09 02:09:52;;;;;;;41.03;8.17;;;8.70;93.40;;;;;;4997937;28;20231;-77
2022/01/09 02:12:21;;;;;;;23.07;6.97;;;8.70;93.40;;;;;;4999571;28;20189;-76
2022/01/09 02:14:49;;;;;;;19.40;6.13;;;8.70;93.40;;;;;;5000910;28;20197;-76
2022/01/09 02:17:18;;;;;;;23.93;6.97;;;8.70;93.50;;;;;;4995710;28;20742;-77
2022/01/09 02:19:53;;;;;;;18.87;7.40;;;8.70;93.50;;;;;;5000777;28;20619;-77
2022/01/09 02:22:23;;;;;;;19.73;6.80;;;8.70;93.50;;;;;;5000189;28;20203;-77
2022/01/09 02:24:51;;;;;;;15.23;6.40;;;8.70;93.40;;;;;;5003055;28;20208;-77
2022/01/09 02:27:20;;;;;;;14.53;6.13;;;8.70;93.40;;;;;;4996403;28;20189;-77
2022/01/09 02:29:49;;;;;;;10.33;5.57;;;8.70;93.40;;;;;;4993082;28;20188;-77
2022/01/09 02:32:17;;;;;;;12.90;6.30;;;8.70;93.40;;;;;;5000204;28;20239;-77
2022/01/09 02:34:50;;;;;;;16.97;6.30;;;8.60;93.40;;;;;;5001593;28;20204;-76
2022/01/09 02:37:21;;;;;;;16.97;5.77;;;8.60;93.40;;;;;;4997846;28;20956;-77
2022/01/09 02:39:50;;;;;;;10.87;5.90;;;8.60;93.40;;;;;;5001761;28;20833;-77
2022/01/09 02:42:20;;;;;;;13.57;5.73;;;8.60;93.40;;;;;;5000192;28;20223;-76
2022/01/09 02:44:48;;;;;;;13.60;5.37;;;8.60;93.40;;;;;;4997993;28;20265;-77
2022/01/09 02:47:17;;;;;;;15.37;5.67;;;8.60;93.40;;;;;;4995245;28;20204;-77
2022/01/09 02:49:49;;;;;;;9.37;4.90;;;8.60;93.50;;;;;;5000333;28;20705;-77
2022/01/09 02:52:32;;;;;;;19.27;5.50;;;8.60;93.40;;;;;;5000326;28;20192;-77
2022/01/09 02:55:12;;;;;;;14.77;4.83;;;8.60;93.40;;;;;;4996297;28;20207;-77
2022/01/09 02:57:41;;;;;;;9.93;4.90;;;8.70;93.40;;;;;;5000707;28;20200;-76
2022/01/09 03:00:12;;;;;;;11.13;5.07;;;8.70;93.80;;;;;;4999701;28;20206;-77
2022/01/09 03:02:40;;;;;;;9.67;5.23;;;8.70;93.40;;;;;;4999998;28;20730;-77
2022/01/09 03:05:09;;;;;;;16.63;5.63;;;8.70;93.40;;;;;;4998103;28;20645;-77
2022/01/09 03:07:40;;;;;;;10.13;4.93;;;8.70;93.30;;;;;;4999971;28;20276;-77
2022/01/09 03:10:11;;;;;;;13.13;6.07;;;8.80;93.30;;;;;;5000841;28;20273;-77
2022/01/09 03:12:39;;;;;;;13.63;5.10;;;8.80;93.30;;;;;;4999196;28;20192;-78
2022/01/09 03:15:09;;;;;;;10.17;4.87;;;8.80;93.30;;;;;;5000669;28;20200;-78
2022/01/09 03:17:38;;;;;;;12.37;4.70;;;8.80;93.30;;;;;;4999875;28;20294;-77
2022/01/09 03:20:09;;;;;;;11.20;5.37;;;8.80;93.20;;;;;;4999595;28;20609;-77
2022/01/09 03:22:40;;;;;;;9.13;4.57;;;8.80;93.20;;;;;;4996861;28;20216;-77
2022/01/09 03:25:09;;;;;;;14.07;5.63;;;8.80;93.20;;;;;;4998676;28;20195;-77
2022/01/09 03:27:39;;;;;;;12.57;5.63;;;8.80;93.20;;;;;;5000847;28;20208;-77
2022/01/09 03:30:10;;;;;;;11.83;4.97;;;8.80;93.20;;;;;;5001372;28;20262;-77
2022/01/09 03:32:39;;;;;;;13.27;5.60;;;8.80;93.20;;;;;;5000859;28;20196;-77
2022/01/09 03:35:11;;;;;;;10.63;5.80;;;8.80;93.10;;;;;;5001827;28;20349;-77
2022/01/09 03:37:42;;;;;;;11.30;5.07;;;8.90;93.20;;;;;;5005359;28;20199;-77
2022/01/09 03:40:13;;;;;;;18.73;5.80;;;8.90;93.20;;;;;;5003155;28;20825;-77
2022/01/09 03:42:42;;;;;;;15.83;5.60;;;8.90;93.10;;;;;;5001830;28;20215;-77
2022/01/09 03:45:11;;;;;;;13.90;6.40;;;8.90;93.10;;;;;;5000521;28;20203;-77
2022/01/09 03:47:39;;;;;;;17.40;6.70;;;8.90;93.10;;;;;;5004841;28;20200;-77
2022/01/09 03:50:10;;;;;;;12.70;5.40;;;8.90;93.10;;;;;;5003408;28;20214;-77
2022/01/09 03:52:41;;;;;;;11.60;5.80;;;8.90;93.10;;;;;;5001563;28;20192;-77
2022/01/09 03:55:12;;;;;;;11.63;5.60;;;8.90;93.10;;;;;;5003003;28;20906;-77
2022/01/09 03:57:41;;;;;;;16.83;6.60;;;8.90;93.10;;;;;;5004930;28;20765;-77
2022/01/09 04:00:12;;;;;;;14.47;6.10;;;9.00;93.10;;;;;;5004945;28;20207;-77
2022/01/09 04:02:41;;;;;;;17.50;6.60;;;9.00;93.10;;;;;;5001137;28;20622;-77
2022/01/09 04:05:10;;;;;;;14.23;6.63;;;9.00;93.10;;;;;;5003054;28;20189;-77
2022/01/09 04:07:39;;;;;;;14.83;6.30;;;9.00;93.10;;;;;;5001874;28;20204;-77
2022/01/09 04:10:22;;;;;;;14.43;6.93;;;9.00;93.00;;;;;;5003926;28;20223;-77
2022/01/09 04:12:58;;;;;;;13.17;6.37;;;9.10;93.00;;;;;;5002904;28;20192;-77
2022/01/09 04:15:26;;;;;;;24.20;7.33;;;9.10;93.00;;;;;;5004169;28;20188;-77
2022/01/09 04:17:56;;;;;;;13.03;6.90;;;9.10;93.00;;;;;;4999716;28;20204;-77
2022/01/09 04:20:27;;;;;;;26.07;8.10;;;9.10;93.00;;;;;;4998163;28;20830;-77
2022/01/09 04:22:57;;;;;;;14.83;6.23;;;9.10;92.90;;;;;;4998607;28;20211;-77
2022/01/09 04:25:26;;;;;;;10.10;5.37;;;9.10;92.90;;;;;;5001401;28;20243;-77
2022/01/09 04:27:55;;;;;;;13.83;5.77;;;9.10;92.90;;;;;;5001340;28;20195;-77
2022/01/09 04:30:23;;;;;;;15.87;6.50;;;9.10;92.90;;;;;;5004408;28;20847;-77
2022/01/09 04:32:51;;;;;;;11.53;5.73;;;9.10;92.90;;;;;;5000629;28;20196;-77
2022/01/09 04:35:20;;;;;;;12.83;5.37;;;9.10;92.90;;;;;;5002497;28;20752;-77
2022/01/09 04:37:49;;;;;;;18.00;6.20;;;9.10;92.90;;;;;;5003444;28;20231;-77
2022/01/09 04:40:20;;;;;;;13.53;6.07;;;9.10;92.90;;;;;;5005309;28;20200;-77
2022/01/09 04:42:52;;;;;;;17.97;6.60;;;9.10;92.90;;;;;;4997436;28;20208;-78
2022/01/09 04:45:22;;;;;;;14.23;5.50;;;9.10;92.90;;;;;;5007100;28;20191;-77
2022/01/09 04:47:52;;;;;;;13.17;5.27;;;9.10;92.90;;;;;;5006302;28;20200;-77
2022/01/09 04:50:24;;;;;;;17.67;5.67;;;9.10;92.80;;;;;;5004804;28;20200;-77
2022/01/09 04:52:59;;;;;;;16.70;5.60;;;9.10;92.80;;;;;;5005628;28;20289;-77
2022/01/09 04:55:30;;;;;;;23.97;6.33;;;9.20;92.90;;;;;;5004968;28;20203;-77
2022/01/09 04:57:58;;;;;;;17.93;6.13;;;9.20;92.90;;;;;;5004384;28;20192;-76
2022/01/09 05:00:27;;;;;;;20.10;6.60;;;9.20;92.80;;;;;;5001269;28;20193;-77
2022/01/09 05:02:55;;;;;;;17.07;7.20;;;9.20;92.80;;;;;;5003763;28;20468;-77
2022/01/09 05:05:24;;;;;;;20.07;7.73;;;9.20;92.80;;;;;;5003811;28;20283;-77
2022/01/09 05:07:53;;;;;;;13.37;6.47;;;9.20;92.80;;;;;;4997749;28;20199;-77
2022/01/09 05:10:21;;;;;;;18.20;7.67;;;9.20;92.80;;;;;;5001345;28;20219;-77
2022/01/09 05:12:51;;;;;;;33.80;8.93;;;9.20;92.80;;;;;;5002904;28;20193;-77
2022/01/09 05:15:20;;;;;;;16.23;7.60;;;9.20;92.80;;;;;;5000292;28;20196;-77
2022/01/09 05:17:50;;;;;;;17.00;7.40;;;9.20;92.80;;;;;;5002911;28;20201;-77
2022/01/09 05:20:19;;;;;;;22.13;7.27;;;9.30;92.80;;;;;;5000420;28;20188;-77
2022/01/09 05:22:47;;;;;;;20.93;6.87;;;9.20;92.80;;;;;;5003074;28;20204;-77
2022/01/09 05:25:15;;;;;;;27.47;7.73;;;9.20;92.80;;;;;;5002625;28;20199;-77
2022/01/09 05:27:44;;;;;;;23.47;8.33;;;9.30;92.80;;;;;;5001948;28;20538;-77
2022/01/09 05:30:14;;;;;;;32.50;8.33;;;9.30;92.80;;;;;;5002131;28;20669;-77
2022/01/09 05:32:42;;;;;;;35.90;7.07;;;9.30;92.80;;;;;;5001910;28;20185;-77
2022/01/09 05:35:14;;;;;;;23.27;7.63;;;9.20;92.80;;;;;;5002044;28;20718;-77
2022/01/09 05:37:43;;;;;;;26.07;7.20;;;9.20;92.80;;;;;;4998038;28;20192;-77
2022/01/09 05:40:12;;;;;;;12.90;6.40;;;9.20;92.80;;;;;;5002384;28;20843;-77
2022/01/09 05:42:40;;;;;;;15.93;6.90;;;9.30;92.80;;;;;;4996964;28;21072;-77
2022/01/09 05:45:10;;;;;;;12.97;6.37;;;9.30;92.80;;;;;;4998861;28;20231;-77
2022/01/09 05:47:40;;;;;;;20.70;6.70;;;9.30;92.80;;;;;;5001393;28;20201;-77
2022/01/09 05:50:09;;;;;;;18.17;7.83;;;9.30;92.80;;;;;;5003276;28;20192;-77
2022/01/09 05:52:37;;;;;;;14.33;6.47;;;9.30;92.80;;;;;;5001957;28;20196;-77
2022/01/09 05:55:06;;;;;;;23.97;7.43;;;9.30;92.80;;;;;;5002967;28;20630;-78
2022/01/09 05:57:35;;;;;;;21.27;6.10;;;9.30;92.80;;;;;;4999365;28;20204;-77
2022/01/09 06:00:04;;;;;;;23.13;6.47;;;9.40;92.80;;;;;;4999973;28;20184;-78
2022/01/09 06:02:33;;;;;;;27.40;7.07;;;9.40;92.80;;;;;;4997113;28;20193;-77
2022/01/09 06:05:03;;;;;;;15.30;6.07;;;9.40;92.70;;;;;;5002042;28;20785;-77
2022/01/09 06:07:31;;;;;;;15.53;6.67;;;9.40;92.70;;;;;;4999591;28;20193;-78
2022/01/09 06:09:59;;;;;;;16.50;6.20;;;9.40;92.70;;;;;;5003373;28;20213;-77
2022/01/09 06:12:28;;;;;;;18.43;7.37;;;9.30;92.70;;;;;;4997954;28;20192;-77
2022/01/09 06:14:56;;;;;;;13.90;6.93;;;9.30;92.70;;;;;;5004552;28;20200;-77
2022/01/09 06:17:27;;;;;;;16.43;6.83;;;9.30;92.60;;;;;;4997712;28;20192;-78
2022/01/09 06:19:56;;;;;;;15.63;6.93;;;9.40;92.70;;;;;;5001812;28;21000;-77
2022/01/09 06:22:25;;;;;;;12.07;6.13;;;9.40;92.70;;;;;;5000284;28;20192;-77
2022/01/09 06:24:53;;;;;;;20.30;6.87;;;9.40;92.70;;;;;;5004067;28;20228;-76
2022/01/09 06:27:22;;;;;;;23.20;6.83;;;9.40;92.70;;;;;;5002551;28;20195;-77
2022/01/09 06:29:50;;;;;;;17.03;6.57;;;9.40;92.70;;;;;;5002686;28;20196;-77
2022/01/09 06:32:19;;;;;;;17.23;7.03;;;9.40;92.60;;;;;;5002545;28;20192;-77
2022/01/09 06:34:47;;;;;;;14.87;7.40;;;9.40;92.60;;;;;;5001247;28;20204;-77
2022/01/09 06:37:15;;;;;;;17.33;8.17;;;9.40;92.60;;;;;;5002664;28;20209;-77
2022/01/09 06:39:45;;;;;;;20.20;7.33;;;9.40;92.60;;;;;;5002834;28;20244;-77
2022/01/09 06:42:13;;;;;;;20.47;7.63;;;9.40;92.60;;;;;;5002557;28;20215;-77
2022/01/09 06:44:42;;;;;;;16.80;7.20;;;9.40;92.60;;;;;;5001375;28;20224;-78
2022/01/09 06:47:11;;;;;;;26.87;8.20;;;9.40;92.60;;;;;;5002476;28;20231;-77
2022/01/09 06:49:39;;;;;;;22.10;9.47;;;9.40;92.60;;;;;;5002089;28;20189;-77
2022/01/09 06:52:08;;;;;;;28.87;9.93;;;9.40;92.60;;;;;;5003087;28;20192;-77
2022/01/09 06:54:36;;;;;;;26.70;8.83;;;9.40;92.60;;;;;;5000922;28;20197;-77
2022/01/09 06:57:07;;;;;;;24.13;7.80;;;9.50;92.60;;;;;;5002566;28;20196;-82
2022/01/09 06:59:35;;;;;;;22.73;7.70;;;9.50;92.60;;;;;;4996055;28;20192;-77
2022/01/09 07:02:04;;;;;;;26.97;8.80;;;9.50;92.60;;;;;;5002950;28;20911;-77
2022/01/09 07:04:32;;;;;;;19.33;8.23;;;9.50;92.60;;;;;;5003213;28;20216;-77
2022/01/09 07:07:00;;;;;;;22.60;8.43;;;9.60;92.60;;;;;;5005759;28;20199;-78
2022/01/09 07:09:28;;;;;;;22.40;7.77;;;9.60;92.60;;;;;;5006579;28;20196;-78
2022/01/09 07:11:57;;;;;;;19.03;7.13;;;9.60;92.60;;;;;;5006946;28;20184;-78
2022/01/09 07:14:26;;;;;;;15.70;6.80;;;9.60;92.60;;;;;;5005843;28;20756;-76
2022/01/09 07:16:55;;;;;;;16.57;7.53;;;9.60;92.60;;;;;;5007320;28;20192;-76
2022/01/09 07:19:23;;;;;;;23.33;7.37;;;9.70;92.60;;;;;;5006222;28;20200;-76
2022/01/09 07:21:51;;;;;;;21.57;7.67;;;9.70;92.60;;;;;;5006467;28;20188;-77
2022/01/09 07:24:20;;;;;;;18.47;7.73;;;9.70;92.60;;;;;;5006767;28;20216;-80
2022/01/09 07:26:48;;;;;;;20.10;7.90;;;9.80;92.60;;;;;;5008700;28;20603;-79
2022/01/09 07:29:17;;;;;;;17.47;7.33;;;9.80;92.60;;;;;;5005768;28;20200;-78
2022/01/09 07:31:47;;;;;;;19.33;7.60;;;9.80;92.60;;;;;;5007629;28;20192;-77
2022/01/09 07:34:15;;;;;;;16.00;7.07;;;9.80;92.60;;;;;;5007002;28;20177;-77
2022/01/09 07:36:43;;;;;;;14.47;6.30;;;9.90;92.50;;;;;;4994530;28;20189;-77
2022/01/09 07:39:12;;;;;;;13.83;6.63;;;9.90;92.50;;;;;;5006833;28;20192;-77
2022/01/09 07:41:40;;;;;;;13.43;5.80;;;9.90;92.50;;;;;;5009892;28;20204;-77
2022/01/09 07:44:09;;;;;;;15.93;7.20;;;9.90;92.50;;;;;;5005517;28;20251;-77
2022/01/09 07:46:38;;;;;;;13.83;6.23;;;9.90;92.40;;;;;;5009814;28;20196;-77
2022/01/09 07:49:07;;;;;;;16.53;6.90;;;9.90;92.40;;;;;;5002607;28;20201;-77
2022/01/09 07:51:36;;;;;;;22.97;8.30;;;9.90;92.40;;;;;;5007135;28;20197;-77
2022/01/09 07:54:19;;;;;;;15.47;7.23;;;9.90;92.40;;;;;;5006015;28;20216;-77
2022/01/09 07:56:47;;;;;;;23.37;7.50;;;10.00;92.50;;;;;;5004397;28;20199;-77
2022/01/09 07:59:15;;;;;;;21.43;6.43;;;10.00;92.50;;;;;;5006499;28;20192;-77
2022/01/09 08:01:49;;;;;;;18.77;7.70;;;10.00;92.50;;;;;;5005225;28;20534;-77
2022/01/09 08:04:19;;;;;;;14.67;6.13;;;10.00;92.40;;;;;;5005265;28;20671;-78
2022/01/09 08:06:48;;;;;;;19.60;7.37;;;10.00;92.40;;;;;;5000685;28;20197;-77
2022/01/09 08:09:16;;;;;;;18.67;7.80;;;10.00;92.30;;;;;;5006734;28;20279;-78
2022/01/09 08:11:44;;;;;;;17.33;7.30;;;10.10;92.40;;;;;;5004865;28;20219;-77
2022/01/09 08:14:13;;;;;;;14.90;7.10;;;10.10;92.40;;;;;;5004658;28;20201;-77
2022/01/09 08:16:41;;;;;;;20.03;7.20;;;10.10;92.30;;;;;;5004967;28;20200;-78
2022/01/09 08:19:10;;;;;;;14.33;6.73;;;10.10;92.30;;;;;;5004561;28;20773;-78
2022/01/09 08:21:40;;;;;;;17.33;7.30;;;10.20;92.30;;;;;;5006353;28;20235;-79
2022/01/09 08:24:10;;;;;;;17.50;6.87;;;10.20;92.20;;;;;;5005749;28;20203;-78
2022/01/09 08:26:38;;;;;;;18.93;7.30;;;10.20;92.20;;;;;;5004703;28;20216;-78
2022/01/09 08:29:06;;;;;;;18.30;7.37;;;10.20;92.20;;;;;;5004336;28;20891;-78
2022/01/09 08:31:35;;;;;;;18.13;6.80;;;10.20;92.10;;;;;;5004630;28;20193;-79
2022/01/09 08:34:03;;;;;;;22.33;8.03;;;10.20;92.10;;;;;;4997381;28;20200;-80
2022/01/09 08:36:34;;;;;;;14.23;6.57;;;10.20;92.10;;;;;;5004191;28;20726;-80
2022/01/09 08:39:05;;;;;;;20.73;8.37;;;10.30;92.10;;;;;;5003096;28;20196;-80
2022/01/09 08:41:33;;;;;;;20.37;8.70;;;10.30;92.00;;;;;;5004798;28;20758;-80
2022/01/09 08:44:02;;;;;;;23.43;9.00;;;10.30;92.00;;;;;;5001655;28;20212;-80
2022/01/09 08:46:30;;;;;;;18.33;7.97;;;10.40;92.10;;;;;;5002979;28;20209;-80
2022/01/09 08:48:59;;;;;;;18.23;7.93;;;10.40;92.10;;;;;;5005408;28;20886;-79
2022/01/09 08:51:28;;;;;;;17.13;7.70;;;10.40;92.00;;;;;;5005079;28;20197;-79
2022/01/09 08:53:56;;;;;;;14.90;6.20;;;10.40;92.00;;;;;;5001577;28;20207;-79
2022/01/09 08:56:27;;;;;;;15.43;6.90;;;10.50;91.90;;;;;;4993331;28;20200;-80
2022/01/09 08:58:57;;;;;;;15.53;6.50;;;10.50;91.90;;;;;;5003568;28;20181;-81
2022/01/09 09:01:44;;;;;;;15.23;6.80;;;10.50;91.80;;;;;;4999594;28;20209;-79
2022/01/09 09:04:12;;;;;;;15.83;6.83;;;10.60;91.80;;;;;;5004461;28;21023;-80
2022/01/09 09:06:41;;;;;;;15.53;6.47;;;10.60;91.80;;;;;;5004407;28;20697;-80
2022/01/09 09:09:10;;;;;;;17.50;6.80;;;10.60;91.60;;;;;;5006296;28;20200;-80
2022/01/09 09:11:40;;;;;;;18.33;7.70;;;10.60;91.60;;;;;;5002917;28;20235;-79
2022/01/09 09:14:08;;;;;;;15.47;7.50;;;10.70;91.60;;;;;;5004952;28;20184;-80
2022/01/09 09:16:37;;;;;;;16.63;7.70;;;10.70;91.40;;;;;;5004334;28;20193;-80
2022/01/09 09:19:05;;;;;;;15.73;7.33;;;10.70;91.40;;;;;;5005481;28;20882;-81
2022/01/09 09:21:33;;;;;;;14.97;7.27;;;10.70;91.20;;;;;;5005497;28;20196;-80
2022/01/09 09:24:02;;;;;;;12.40;6.53;;;10.70;91.20;;;;;;5003883;28;20188;-79
2022/01/09 09:26:30;;;;;;;11.87;5.97;;;10.70;91.20;;;;;;5003997;28;20216;-79
2022/01/09 09:29:00;;;;;;;12.13;5.57;;;10.70;91.10;;;;;;5005062;28;20203;-79
2022/01/09 09:31:28;;;;;;;12.80;6.20;;;10.60;91.10;;;;;;5001159;28;20834;-79
2022/01/09 09:33:56;;;;;;;14.63;6.68;;;10.60;91.10;;;;;;5004937;28;20412;-80
2022/01/09 09:36:25;;;;;;;12.53;5.77;;;10.60;91.20;;;;;;5003574;28;20243;-80
2022/01/09 09:38:53;;;;;;;11.47;4.60;;;10.60;91.20;;;;;;5004307;28;20207;-79
2022/01/09 09:41:24;;;;;;;9.90;4.80;;;10.60;91.10;;;;;;5000360;28;20195;-79
2022/01/09 09:43:52;;;;;;;10.03;4.73;;;10.60;91.10;;;;;;4999837;28;20203;-79
2022/01/09 09:46:26;;;;;;;8.30;4.40;;;10.60;91.20;;;;;;4993352;28;20775;-79
2022/01/09 09:48:54;;;;;;;13.50;5.77;;;10.70;91.10;;;;;;5000954;28;20646;-79
2022/01/09 09:51:25;;;;;;;12.93;6.13;;;10.60;91.10;;;;;;5003300;28;20648;-80
2022/01/09 09:53:53;;;;;;;13.60;6.70;;;10.60;91.10;;;;;;5002503;28;20200;-80
2022/01/09 09:56:22;;;;;;;12.27;6.73;;;10.60;90.90;;;;;;5003967;28;20204;-79
2022/01/09 09:58:51;;;;;;;15.37;8.20;;;10.60;90.90;;;;;;5004246;28;20196;-79
2022/01/09 10:01:29;;;;;;;18.87;8.97;;;10.60;90.90;;;;;;5002862;28;20804;-79
2022/01/09 10:03:59;;;;;;;15.13;8.37;;;10.60;90.90;;;;;;4999795;28;20215;-79
2022/01/09 10:06:39;;;;;;;15.10;8.17;;;10.60;90.90;;;;;;4990678;28;20223;-79
2022/01/09 10:09:13;;;;;;;16.47;7.37;;;10.60;90.90;;;;;;5001260;28;20188;-79
2022/01/09 10:11:43;;;;;;;17.23;7.83;;;10.60;90.80;;;;;;5003850;28;20228;-79
2022/01/09 10:14:14;;;;;;;14.57;6.80;;;10.60;90.80;;;;;;5004545;28;20188;-78
2022/01/09 10:17:11;;;;;;;17.63;7.60;;;10.60;90.80;;;;;;5005327;28;20838;-79
2022/01/09 10:19:45;;;;;;;15.60;7.63;;;10.60;90.90;;;;;;5000897;28;20467;-79
2022/01/09 10:22:32;;;;;;;14.40;7.57;;;10.60;91.10;;;;;;5004170;28;20746;-79
2022/01/09 10:25:30;;;;;;;15.70;8.07;;;10.60;91.10;;;;;;5004675;28;20192;-79
2022/01/09 10:28:01;;;;;;;19.43;8.47;;;10.60;91.00;;;;;;5002833;28;20188;-79
2022/01/09 10:30:33;;;;;;;18.27;8.43;;;10.50;90.90;;;;;;5003005;28;20188;-79
2022/01/09 10:33:07;;;;;;;16.37;8.00;;;10.50;90.90;;;;;;5004133;28;20188;-80
2022/01/09 10:35:36;;;;;;;17.03;8.70;;;10.50;90.90;;;;;;5005237;28;20177;-80
2022/01/09 10:38:08;;;;;;;18.13;9.37;;;10.50;91.00;;;;;;5003130;28;20201;-84
2022/01/09 10:40:38;;;;;;;18.33;8.50;;;10.50;91.00;;;;;;4998709;28;20180;-84
2022/01/09 10:43:09;;;;;;;18.60;9.07;;;10.40;91.00;;;;;;5006183;28;20271;-79
2022/01/09 10:45:42;;;;;;;15.93;8.23;;;10.50;91.00;;;;;;5002891;28;20200;-80
2022/01/09 10:48:14;;;;;;;16.17;7.97;;;10.50;91.10;;;;;;5001877;28;20181;-80
2022/01/09 10:50:44;;;;;;;17.37;8.37;;;10.60;91.10;;;;;;5002162;28;20185;-79
2022/01/09 10:53:15;;;;;;;14.50;7.50;;;10.60;90.90;;;;;;5000945;28;20185;-79
2022/01/09 10:55:44;;;;;;;16.63;8.60;;;10.50;90.80;;;;;;5002098;28;20232;-80
2022/01/09 10:58:21;;;;;;;14.47;7.00;;;10.60;90.90;;;;;;5001103;28;20185;-78
2022/01/09 11:01:15;;;;;;;11.80;6.33;;;10.60;90.90;;;;;;5002772;28;20689;-80
2022/01/09 11:03:47;;;;;;;15.67;6.80;;;10.70;90.80;;;;;;5003202;28;20199;-80
2022/01/09 11:06:16;;;;;;;15.17;7.73;;;10.70;90.70;;;;;;5002193;28;20632;-79
2022/01/09 11:08:44;;;;;;;13.07;7.77;;;10.70;90.70;;;;;;5001725;28;20205;-79
2022/01/09 11:11:22;;;;;;;16.30;8.30;;;10.70;90.60;;;;;;4995317;28;20452;-77
2022/01/09 11:13:52;;;;;;;12.13;6.90;;;10.60;90.70;;;;;;5000401;28;20196;-78
2022/01/09 11:16:34;;;;;;;13.87;7.17;;;10.60;90.70;;;;;;5001705;28;20183;-81
2022/01/09 11:19:09;;;;;;;16.90;7.70;;;10.60;90.60;;;;;;5002278;28;20200;-79
2022/01/09 11:21:40;;;;;;;14.27;7.23;;;10.60;90.60;;;;;;5001499;28;20606;-78
2022/01/09 11:24:30;;;;;;;13.10;7.03;;;10.60;90.50;;;;;;5002632;28;20630;-78
2022/01/09 11:27:02;;;;;;;13.10;7.67;;;10.60;90.60;;;;;;5002455;28;20219;-79
2022/01/09 11:29:39;;;;;;;17.00;8.97;;;10.60;90.60;;;;;;5002455;28;20248;-78
2022/01/09 11:32:21;;;;;;;16.00;7.97;;;10.60;90.70;;;;;;5002709;28;20569;-78
2022/01/09 11:35:03;;;;;;;14.83;8.57;;;10.60;90.70;;;;;;5003134;28;20199;-77
2022/01/09 11:37:49;;;;;;;15.40;8.67;;;10.50;90.70;;;;;;4987928;28;20197;-79
2022/01/09 11:40:25;;;;;;;18.27;8.53;;;10.50;90.70;;;;;;5002034;28;20184;-78
2022/01/09 11:43:00;;;;;;;16.30;8.23;;;10.50;90.70;;;;;;5002116;28;20717;-78
2022/01/09 11:45:51;;;;;;;14.77;7.80;;;10.50;90.70;;;;;;5002964;28;20188;-79
2022/01/09 11:48:39;;;;;;;17.43;7.83;;;10.60;90.70;;;;;;5002797;28;20204;-78
2022/01/09 11:51:13;;;;;;;12.80;7.77;;;10.60;90.70;;;;;;5001917;28;20185;-78
2022/01/09 11:54:03;;;;;;;17.43;8.97;;;10.50;90.70;;;;;;5005020;28;20698;-79
2022/01/09 11:56:49;;;;;;;17.97;9.80;;;10.50;90.70;;;;;;5003491;28;20220;-78
2022/01/09 11:59:51;;;;;;;15.60;8.97;;;10.50;90.70;;;;;;5005158;28;20219;-78
2022/01/09 12:02:34;;;;;;;15.50;8.20;;;10.50;90.80;;;;;;5002867;28;20232;-78
2022/01/09 12:05:05;;;;;;;12.23;7.00;;;10.60;90.80;;;;;;5002249;28;20191;-77
2022/01/09 12:08:09;;;;;;;14.33;7.60;;;10.60;90.80;;;;;;5005435;28;20208;-78
2022/01/09 12:10:50;;;;;;;13.20;7.50;;;10.60;90.70;;;;;;4998570;28;20224;-78
2022/01/09 12:13:48;;;;;;;17.90;7.53;;;10.60;90.70;;;;;;5005909;28;20192;-78
2022/01/09 12:16:49;;;;;;;15.97;7.47;;;10.60;90.60;;;;;;5003360;28;20346;-78
2022/01/09 12:19:57;;;;;;;15.97;7.70;;;10.60;90.60;;;;;;4999622;28;20207;-79
2022/01/09 12:22:49;;;;;;;14.13;7.93;;;10.70;90.70;;;;;;4999991;28;20279;-78
2022/01/09 12:25:42;;;;;;;13.17;6.80;;;10.70;90.60;;;;;;5003898;28;20246;-77
2022/01/09 12:28:14;;;;;;;16.30;7.83;;;10.80;90.70;;;;;;5003955;28;20212;-77
2022/01/09 12:30:48;;;;;;;17.90;8.97;;;10.90;90.50;;;;;;5002554;28;20195;-77
2022/01/09 12:33:49;;;;;;;16.23;8.10;;;10.90;90.30;;;;;;5005944;28;20183;-77
2022/01/09 12:36:27;;;;;;;14.70;8.43;;;10.90;90.30;;;;;;5007322;28;20187;-77
2022/01/09 12:38:57;;;;;;;17.40;7.37;;;10.90;90.20;;;;;;5002931;28;20192;-77
2022/01/09 12:41:32;;;;;;;13.07;6.90;;;10.80;90.10;;;;;;5005731;28;20200;-76
2022/01/09 12:44:05;;;;;;;15.37;7.10;;;10.80;90.10;;;;;;5006997;28;20184;-77
2022/01/09 12:46:36;;;;;;;14.43;7.07;;;10.80;90.10;;;;;;4997371;28;20246;-77
2022/01/09 12:49:07;;;;;;;16.40;8.17;;;10.80;90.10;;;;;;5004918;28;20191;-77
2022/01/09 12:51:36;;;;;;;15.57;6.53;;;10.80;90.10;;;;;;5007082;28;20187;-77
2022/01/09 12:54:06;;;;;;;14.53;7.67;;;10.70;90.10;;;;;;5003890;28;20188;-77
2022/01/09 12:56:38;;;;;;;14.47;7.07;;;10.70;90.10;;;;;;5004225;28;20650;-77
2022/01/09 12:59:08;;;;;;;13.50;7.27;;;10.70;90.20;;;;;;5001939;28;20188;-77
2022/01/09 13:01:40;;;;;;;14.27;7.67;;;10.70;90.20;;;;;;4998787;28;20283;-77
2022/01/09 13:04:13;;;;;;;12.43;6.70;;;10.80;90.30;;;;;;4996186;28;20188;-77